sensor_id;sensor_type;location;lat;lon;timestamp;P1;durP1;ratioP1;P2;durP2;ratioP2
34585;SDS011;20816;50.950;11.108;2023-04-15T00:01:06;5.07;;;2.67;;
34585;SDS011;20816;50.950;11.108;2023-04-15T00:03:33;3.13;;;2.27;;
34585;SDS011;20816;50.950;11.108;2023-04-15T00:06:01;3.33;;;2.20;;
34585;SDS011;20816;50.950;11.108;2023-04-15T00:08:29;2.87;;;2.30;;
34585;SDS011;20816;50.950;11.108;2023-04-15T00:10:56;3.23;;;2.10;;
34585;SDS011;20816;50.950;11.108;2023-04-15T00:13:28;2.30;;;2.07;;
34585;SDS011;20816;50.950;11.108;2023-04-15T00:15:55;4.60;;;2.37;;
34585;SDS011;20816;50.950;11.108;2023-04-15T00:18:22;2.67;;;2.00;;
34585;SDS011;20816;50.950;11.108;2023-04-15T00:20:49;2.23;;;1.83;;
34585;SDS011;20816;50.950;11.108;2023-04-15T00:23:16;2.83;;;1.97;;
34585;SDS011;20816;50.950;11.108;2023-04-15T00:25:43;3.90;;;2.07;;
34585;SDS011;20816;50.950;11.108;2023-04-15T00:28:10;2.23;;;1.77;;
34585;SDS011;20816;50.950;11.108;2023-04-15T00:30:36;3.47;;;2.07;;
34585;SDS011;20816;50.950;11.108;2023-04-15T00:33:04;2.33;;;1.83;;
34585;SDS011;20816;50.950;11.108;2023-04-15T00:35:31;2.20;;;1.97;;
34585;SDS011;20816;50.950;11.108;2023-04-15T00:37:58;2.77;;;1.67;;
34585;SDS011;20816;50.950;11.108;2023-04-15T00:40:25;3.17;;;1.80;;
34585;SDS011;20816;50.950;11.108;2023-04-15T00:42:53;2.47;;;1.83;;
34585;SDS011;20816;50.950;11.108;2023-04-15T00:45:20;2.97;;;2.10;;
34585;SDS011;20816;50.950;11.108;2023-04-15T00:47:47;2.53;;;1.77;;
34585;SDS011;20816;50.950;11.108;2023-04-15T00:50:13;2.67;;;2.03;;
34585;SDS011;20816;50.950;11.108;2023-04-15T00:52:40;3.87;;;1.80;;
34585;SDS011;20816;50.950;11.108;2023-04-15T00:55:07;1.90;;;1.57;;
34585;SDS011;20816;50.950;11.108;2023-04-15T00:57:34;3.93;;;2.43;;
34585;SDS011;20816;50.950;11.108;2023-04-15T01:00:02;3.87;;;1.70;;
34585;SDS011;20816;50.950;11.108;2023-04-15T01:02:30;3.23;;;2.00;;
34585;SDS011;20816;50.950;11.108;2023-04-15T01:04:58;2.97;;;1.70;;
34585;SDS011;20816;50.950;11.108;2023-04-15T01:07:25;3.03;;;2.10;;
34585;SDS011;20816;50.950;11.108;2023-04-15T01:09:52;3.23;;;1.80;;
34585;SDS011;20816;50.950;11.108;2023-04-15T01:12:20;3.50;;;2.10;;
34585;SDS011;20816;50.950;11.108;2023-04-15T01:14:47;5.33;;;1.90;;
34585;SDS011;20816;50.950;11.108;2023-04-15T01:17:14;3.97;;;2.17;;
34585;SDS011;20816;50.950;11.108;2023-04-15T01:19:40;3.00;;;2.00;;
34585;SDS011;20816;50.950;11.108;2023-04-15T01:22:07;3.20;;;1.73;;
34585;SDS011;20816;50.950;11.108;2023-04-15T01:24:34;2.30;;;1.73;;
34585;SDS011;20816;50.950;11.108;2023-04-15T01:27:02;2.07;;;1.87;;
34585;SDS011;20816;50.950;11.108;2023-04-15T01:29:31;2.40;;;1.73;;
34585;SDS011;20816;50.950;11.108;2023-04-15T01:31:58;3.07;;;2.57;;
34585;SDS011;20816;50.950;11.108;2023-04-15T01:34:25;3.43;;;2.13;;
34585;SDS011;20816;50.950;11.108;2023-04-15T01:36:52;2.80;;;2.23;;
34585;SDS011;20816;50.950;11.108;2023-04-15T01:39:19;2.67;;;1.90;;
34585;SDS011;20816;50.950;11.108;2023-04-15T01:41:46;3.43;;;2.17;;
34585;SDS011;20816;50.950;11.108;2023-04-15T01:44:12;2.43;;;1.97;;
34585;SDS011;20816;50.950;11.108;2023-04-15T01:46:39;3.53;;;2.53;;
34585;SDS011;20816;50.950;11.108;2023-04-15T01:49:06;4.40;;;2.37;;
34585;SDS011;20816;50.950;11.108;2023-04-15T01:51:33;3.50;;;2.27;;
34585;SDS011;20816;50.950;11.108;2023-04-15T01:54:00;4.83;;;3.20;;
34585;SDS011;20816;50.950;11.108;2023-04-15T01:56:27;2.87;;;2.30;;
34585;SDS011;20816;50.950;11.108;2023-04-15T01:58:53;4.50;;;2.17;;
34585;SDS011;20816;50.950;11.108;2023-04-15T02:01:20;1.87;;;1.57;;
34585;SDS011;20816;50.950;11.108;2023-04-15T02:03:47;3.70;;;2.00;;
34585;SDS011;20816;50.950;11.108;2023-04-15T02:06:14;4.33;;;2.77;;
34585;SDS011;20816;50.950;11.108;2023-04-15T02:08:41;2.67;;;1.90;;
34585;SDS011;20816;50.950;11.108;2023-04-15T02:11:08;5.60;;;2.67;;
34585;SDS011;20816;50.950;11.108;2023-04-15T02:13:35;3.40;;;2.43;;
34585;SDS011;20816;50.950;11.108;2023-04-15T02:16:02;6.63;;;2.93;;
34585;SDS011;20816;50.950;11.108;2023-04-15T02:18:29;2.93;;;2.20;;
34585;SDS011;20816;50.950;11.108;2023-04-15T02:20:55;3.33;;;2.30;;
34585;SDS011;20816;50.950;11.108;2023-04-15T02:23:24;2.60;;;1.87;;
34585;SDS011;20816;50.950;11.108;2023-04-15T02:25:51;2.73;;;2.40;;
34585;SDS011;20816;50.950;11.108;2023-04-15T02:28:19;4.47;;;2.20;;
34585;SDS011;20816;50.950;11.108;2023-04-15T02:30:46;4.13;;;2.17;;
34585;SDS011;20816;50.950;11.108;2023-04-15T02:33:16;2.70;;;1.93;;
34585;SDS011;20816;50.950;11.108;2023-04-15T02:35:43;2.70;;;2.10;;
34585;SDS011;20816;50.950;11.108;2023-04-15T02:38:10;3.80;;;2.60;;
34585;SDS011;20816;50.950;11.108;2023-04-15T02:40:37;3.83;;;2.37;;
34585;SDS011;20816;50.950;11.108;2023-04-15T02:43:04;3.73;;;2.47;;
34585;SDS011;20816;50.950;11.108;2023-04-15T02:45:32;4.40;;;2.60;;
34585;SDS011;20816;50.950;11.108;2023-04-15T02:47:59;4.43;;;2.80;;
34585;SDS011;20816;50.950;11.108;2023-04-15T02:50:31;4.00;;;2.33;;
34585;SDS011;20816;50.950;11.108;2023-04-15T02:52:58;3.90;;;2.60;;
34585;SDS011;20816;50.950;11.108;2023-04-15T02:55:27;3.47;;;2.47;;
34585;SDS011;20816;50.950;11.108;2023-04-15T02:57:54;3.47;;;2.20;;
34585;SDS011;20816;50.950;11.108;2023-04-15T03:00:21;3.80;;;2.43;;
34585;SDS011;20816;50.950;11.108;2023-04-15T03:02:50;3.30;;;2.43;;
34585;SDS011;20816;50.950;11.108;2023-04-15T03:05:22;5.77;;;3.83;;
34585;SDS011;20816;50.950;11.108;2023-04-15T03:07:51;3.20;;;2.80;;
34585;SDS011;20816;50.950;11.108;2023-04-15T03:10:18;6.33;;;3.10;;
34585;SDS011;20816;50.950;11.108;2023-04-15T03:12:45;6.20;;;3.27;;
34585;SDS011;20816;50.950;11.108;2023-04-15T03:15:12;4.40;;;2.63;;
34585;SDS011;20816;50.950;11.108;2023-04-15T03:17:39;5.43;;;3.13;;
34585;SDS011;20816;50.950;11.108;2023-04-15T03:20:06;3.80;;;2.67;;
34585;SDS011;20816;50.950;11.108;2023-04-15T03:22:33;7.80;;;3.63;;
34585;SDS011;20816;50.950;11.108;2023-04-15T03:24:59;3.87;;;2.47;;
34585;SDS011;20816;50.950;11.108;2023-04-15T03:27:27;4.37;;;2.93;;
34585;SDS011;20816;50.950;11.108;2023-04-15T03:29:53;4.30;;;2.93;;
34585;SDS011;20816;50.950;11.108;2023-04-15T03:32:22;5.03;;;3.63;;
34585;SDS011;20816;50.950;11.108;2023-04-15T03:34:48;4.43;;;3.00;;
34585;SDS011;20816;50.950;11.108;2023-04-15T03:37:15;5.23;;;3.03;;
34585;SDS011;20816;50.950;11.108;2023-04-15T03:39:42;4.73;;;3.50;;
34585;SDS011;20816;50.950;11.108;2023-04-15T03:42:08;4.33;;;3.10;;
34585;SDS011;20816;50.950;11.108;2023-04-15T03:44:35;5.57;;;3.73;;
34585;SDS011;20816;50.950;11.108;2023-04-15T03:47:02;6.23;;;3.83;;
34585;SDS011;20816;50.950;11.108;2023-04-15T03:49:29;4.93;;;3.13;;
34585;SDS011;20816;50.950;11.108;2023-04-15T03:51:55;6.77;;;3.47;;
34585;SDS011;20816;50.950;11.108;2023-04-15T03:54:22;4.47;;;3.47;;
34585;SDS011;20816;50.950;11.108;2023-04-15T03:56:49;4.73;;;3.63;;
34585;SDS011;20816;50.950;11.108;2023-04-15T03:59:16;5.80;;;3.83;;
34585;SDS011;20816;50.950;11.108;2023-04-15T04:01:42;5.77;;;3.70;;
34585;SDS011;20816;50.950;11.108;2023-04-15T04:04:09;5.83;;;3.80;;
34585;SDS011;20816;50.950;11.108;2023-04-15T04:06:36;7.40;;;4.40;;
34585;SDS011;20816;50.950;11.108;2023-04-15T04:09:03;6.67;;;4.10;;
34585;SDS011;20816;50.950;11.108;2023-04-15T04:11:30;9.40;;;4.80;;
34585;SDS011;20816;50.950;11.108;2023-04-15T04:13:57;7.90;;;4.93;;
34585;SDS011;20816;50.950;11.108;2023-04-15T04:16:23;6.67;;;4.70;;
34585;SDS011;20816;50.950;11.108;2023-04-15T04:18:50;9.10;;;4.97;;
34585;SDS011;20816;50.950;11.108;2023-04-15T04:21:17;8.37;;;5.27;;
34585;SDS011;20816;50.950;11.108;2023-04-15T04:23:45;10.70;;;6.43;;
34585;SDS011;20816;50.950;11.108;2023-04-15T04:26:12;10.40;;;6.23;;
34585;SDS011;20816;50.950;11.108;2023-04-15T04:28:39;10.43;;;6.70;;
34585;SDS011;20816;50.950;11.108;2023-04-15T04:31:06;8.00;;;5.27;;
34585;SDS011;20816;50.950;11.108;2023-04-15T04:33:33;11.50;;;6.50;;
34585;SDS011;20816;50.950;11.108;2023-04-15T04:35:59;10.90;;;6.90;;
34585;SDS011;20816;50.950;11.108;2023-04-15T04:38:26;12.13;;;6.93;;
34585;SDS011;20816;50.950;11.108;2023-04-15T04:40:53;11.77;;;6.67;;
34585;SDS011;20816;50.950;11.108;2023-04-15T04:43:20;11.80;;;7.43;;
34585;SDS011;20816;50.950;11.108;2023-04-15T04:45:47;16.13;;;8.07;;
34585;SDS011;20816;50.950;11.108;2023-04-15T04:48:13;15.13;;;8.43;;
34585;SDS011;20816;50.950;11.108;2023-04-15T04:50:40;11.97;;;6.97;;
34585;SDS011;20816;50.950;11.108;2023-04-15T04:53:07;14.73;;;8.67;;
34585;SDS011;20816;50.950;11.108;2023-04-15T04:55:34;16.00;;;7.80;;
34585;SDS011;20816;50.950;11.108;2023-04-15T04:58:02;17.33;;;8.60;;
34585;SDS011;20816;50.950;11.108;2023-04-15T05:00:29;14.63;;;8.27;;
34585;SDS011;20816;50.950;11.108;2023-04-15T05:02:55;13.93;;;8.70;;
34585;SDS011;20816;50.950;11.108;2023-04-15T05:05:23;18.77;;;10.27;;
34585;SDS011;20816;50.950;11.108;2023-04-15T05:07:49;17.23;;;9.37;;
34585;SDS011;20816;50.950;11.108;2023-04-15T05:10:16;19.60;;;10.20;;
34585;SDS011;20816;50.950;11.108;2023-04-15T05:12:43;16.20;;;8.97;;
34585;SDS011;20816;50.950;11.108;2023-04-15T05:15:10;16.17;;;8.97;;
34585;SDS011;20816;50.950;11.108;2023-04-15T05:17:37;20.83;;;8.97;;
34585;SDS011;20816;50.950;11.108;2023-04-15T05:20:04;16.50;;;9.07;;
34585;SDS011;20816;50.950;11.108;2023-04-15T05:22:31;13.30;;;8.50;;
34585;SDS011;20816;50.950;11.108;2023-04-15T05:24:58;12.97;;;8.47;;
34585;SDS011;20816;50.950;11.108;2023-04-15T05:27:25;12.13;;;7.87;;
34585;SDS011;20816;50.950;11.108;2023-04-15T05:29:51;11.67;;;7.67;;
34585;SDS011;20816;50.950;11.108;2023-04-15T05:32:18;13.57;;;7.50;;
34585;SDS011;20816;50.950;11.108;2023-04-15T05:34:45;11.10;;;5.97;;
34585;SDS011;20816;50.950;11.108;2023-04-15T05:37:12;11.27;;;6.23;;
34585;SDS011;20816;50.950;11.108;2023-04-15T05:39:39;13.60;;;6.93;;
34585;SDS011;20816;50.950;11.108;2023-04-15T05:42:06;11.33;;;7.10;;
34585;SDS011;20816;50.950;11.108;2023-04-15T05:44:33;11.13;;;6.47;;
34585;SDS011;20816;50.950;11.108;2023-04-15T05:46:59;11.63;;;6.17;;
34585;SDS011;20816;50.950;11.108;2023-04-15T05:49:26;8.93;;;5.00;;
34585;SDS011;20816;50.950;11.108;2023-04-15T05:51:53;8.17;;;4.30;;
34585;SDS011;20816;50.950;11.108;2023-04-15T05:54:20;7.87;;;5.10;;
34585;SDS011;20816;50.950;11.108;2023-04-15T05:56:47;6.37;;;4.47;;
34585;SDS011;20816;50.950;11.108;2023-04-15T05:59:14;8.90;;;5.40;;
34585;SDS011;20816;50.950;11.108;2023-04-15T06:01:41;7.50;;;4.77;;
34585;SDS011;20816;50.950;11.108;2023-04-15T06:04:08;6.70;;;3.60;;
34585;SDS011;20816;50.950;11.108;2023-04-15T06:06:35;4.17;;;3.47;;
34585;SDS011;20816;50.950;11.108;2023-04-15T06:09:02;6.30;;;3.73;;
34585;SDS011;20816;50.950;11.108;2023-04-15T06:11:29;6.10;;;4.70;;
34585;SDS011;20816;50.950;11.108;2023-04-15T06:13:56;4.33;;;3.17;;
34585;SDS011;20816;50.950;11.108;2023-04-15T06:16:23;5.83;;;3.93;;
34585;SDS011;20816;50.950;11.108;2023-04-15T06:18:50;6.37;;;3.83;;
34585;SDS011;20816;50.950;11.108;2023-04-15T06:21:17;7.03;;;3.60;;
34585;SDS011;20816;50.950;11.108;2023-04-15T06:23:44;8.67;;;4.07;;
34585;SDS011;20816;50.950;11.108;2023-04-15T06:26:11;5.67;;;3.90;;
34585;SDS011;20816;50.950;11.108;2023-04-15T06:28:37;5.37;;;3.97;;
34585;SDS011;20816;50.950;11.108;2023-04-15T06:31:04;5.90;;;4.30;;
34585;SDS011;20816;50.950;11.108;2023-04-15T06:33:31;5.37;;;3.70;;
34585;SDS011;20816;50.950;11.108;2023-04-15T06:35:58;5.30;;;3.77;;
34585;SDS011;20816;50.950;11.108;2023-04-15T06:38:25;4.90;;;3.53;;
34585;SDS011;20816;50.950;11.108;2023-04-15T06:40:51;7.07;;;4.10;;
34585;SDS011;20816;50.950;11.108;2023-04-15T06:43:18;5.17;;;3.80;;
34585;SDS011;20816;50.950;11.108;2023-04-15T06:45:45;5.57;;;2.97;;
34585;SDS011;20816;50.950;11.108;2023-04-15T06:48:12;5.57;;;2.70;;
34585;SDS011;20816;50.950;11.108;2023-04-15T06:50:39;4.83;;;2.43;;
34585;SDS011;20816;50.950;11.108;2023-04-15T06:53:06;4.67;;;2.90;;
34585;SDS011;20816;50.950;11.108;2023-04-15T06:55:33;8.10;;;3.20;;
34585;SDS011;20816;50.950;11.108;2023-04-15T06:57:59;5.00;;;3.50;;
34585;SDS011;20816;50.950;11.108;2023-04-15T07:00:26;4.90;;;3.03;;
34585;SDS011;20816;50.950;11.108;2023-04-15T07:02:53;3.97;;;2.30;;
34585;SDS011;20816;50.950;11.108;2023-04-15T07:05:21;3.97;;;2.93;;
34585;SDS011;20816;50.950;11.108;2023-04-15T07:07:48;4.73;;;2.93;;
34585;SDS011;20816;50.950;11.108;2023-04-15T07:10:14;4.80;;;2.83;;
34585;SDS011;20816;50.950;11.108;2023-04-15T07:12:41;3.53;;;2.00;;
34585;SDS011;20816;50.950;11.108;2023-04-15T07:15:08;3.33;;;2.43;;
34585;SDS011;20816;50.950;11.108;2023-04-15T07:17:35;3.87;;;2.63;;
34585;SDS011;20816;50.950;11.108;2023-04-15T07:20:02;5.93;;;2.37;;
34585;SDS011;20816;50.950;11.108;2023-04-15T07:22:30;2.50;;;1.87;;
34585;SDS011;20816;50.950;11.108;2023-04-15T07:24:57;5.90;;;3.17;;
34585;SDS011;20816;50.950;11.108;2023-04-15T07:27:23;4.47;;;2.77;;
34585;SDS011;20816;50.950;11.108;2023-04-15T07:29:51;3.80;;;2.57;;
34585;SDS011;20816;50.950;11.108;2023-04-15T07:32:18;2.83;;;2.20;;
34585;SDS011;20816;50.950;11.108;2023-04-15T07:34:45;3.33;;;2.23;;
34585;SDS011;20816;50.950;11.108;2023-04-15T07:37:12;4.63;;;2.50;;
34585;SDS011;20816;50.950;11.108;2023-04-15T07:39:39;5.27;;;2.57;;
34585;SDS011;20816;50.950;11.108;2023-04-15T07:42:06;4.57;;;2.03;;
34585;SDS011;20816;50.950;11.108;2023-04-15T07:44:32;5.63;;;2.77;;
34585;SDS011;20816;50.950;11.108;2023-04-15T07:47:00;3.97;;;2.10;;
34585;SDS011;20816;50.950;11.108;2023-04-15T07:49:28;4.43;;;2.30;;
34585;SDS011;20816;50.950;11.108;2023-04-15T07:51:54;3.73;;;2.33;;
34585;SDS011;20816;50.950;11.108;2023-04-15T07:54:23;3.83;;;2.47;;
34585;SDS011;20816;50.950;11.108;2023-04-15T07:56:49;5.43;;;3.33;;
34585;SDS011;20816;50.950;11.108;2023-04-15T07:59:16;5.10;;;2.87;;
34585;SDS011;20816;50.950;11.108;2023-04-15T08:01:43;4.27;;;2.70;;
34585;SDS011;20816;50.950;11.108;2023-04-15T08:04:10;6.03;;;3.43;;
34585;SDS011;20816;50.950;11.108;2023-04-15T08:06:37;4.80;;;2.53;;
34585;SDS011;20816;50.950;11.108;2023-04-15T08:09:05;3.87;;;1.87;;
34585;SDS011;20816;50.950;11.108;2023-04-15T08:11:33;3.50;;;2.10;;
34585;SDS011;20816;50.950;11.108;2023-04-15T08:14:00;2.77;;;2.07;;
34585;SDS011;20816;50.950;11.108;2023-04-15T08:16:27;3.93;;;2.23;;
34585;SDS011;20816;50.950;11.108;2023-04-15T08:18:55;3.80;;;2.40;;
34585;SDS011;20816;50.950;11.108;2023-04-15T08:21:22;3.60;;;2.10;;
34585;SDS011;20816;50.950;11.108;2023-04-15T08:23:50;4.23;;;2.00;;
34585;SDS011;20816;50.950;11.108;2023-04-15T08:26:19;2.20;;;1.50;;
34585;SDS011;20816;50.950;11.108;2023-04-15T08:28:46;3.53;;;2.47;;
34585;SDS011;20816;50.950;11.108;2023-04-15T08:31:14;2.23;;;1.60;;
34585;SDS011;20816;50.950;11.108;2023-04-15T08:33:42;2.80;;;1.87;;
34585;SDS011;20816;50.950;11.108;2023-04-15T08:36:09;3.17;;;2.27;;
34585;SDS011;20816;50.950;11.108;2023-04-15T08:38:36;3.17;;;1.80;;
34585;SDS011;20816;50.950;11.108;2023-04-15T08:41:03;3.17;;;1.90;;
34585;SDS011;20816;50.950;11.108;2023-04-15T08:43:36;3.43;;;1.73;;
34585;SDS011;20816;50.950;11.108;2023-04-15T08:46:11;4.30;;;2.40;;
34585;SDS011;20816;50.950;11.108;2023-04-15T08:48:39;4.27;;;2.10;;
34585;SDS011;20816;50.950;11.108;2023-04-15T08:51:06;2.40;;;1.57;;
34585;SDS011;20816;50.950;11.108;2023-04-15T08:53:33;5.63;;;1.93;;
34585;SDS011;20816;50.950;11.108;2023-04-15T08:56:02;4.50;;;1.70;;
34585;SDS011;20816;50.950;11.108;2023-04-15T08:58:31;2.83;;;2.03;;
34585;SDS011;20816;50.950;11.108;2023-04-15T09:00:58;2.67;;;1.50;;
34585;SDS011;20816;50.950;11.108;2023-04-15T09:03:25;2.60;;;1.43;;
34585;SDS011;20816;50.950;11.108;2023-04-15T09:05:52;2.80;;;1.93;;
34585;SDS011;20816;50.950;11.108;2023-04-15T09:08:19;3.70;;;1.60;;
34585;SDS011;20816;50.950;11.108;2023-04-15T09:10:46;2.87;;;2.00;;
34585;SDS011;20816;50.950;11.108;2023-04-15T09:13:13;3.00;;;1.00;;
34585;SDS011;20816;50.950;11.108;2023-04-15T09:15:40;2.60;;;1.70;;
34585;SDS011;20816;50.950;11.108;2023-04-15T09:18:07;3.63;;;1.70;;
34585;SDS011;20816;50.950;11.108;2023-04-15T09:20:40;2.93;;;1.63;;
34585;SDS011;20816;50.950;11.108;2023-04-15T09:23:14;2.10;;;1.80;;
34585;SDS011;20816;50.950;11.108;2023-04-15T09:25:41;3.17;;;1.97;;
34585;SDS011;20816;50.950;11.108;2023-04-15T09:28:08;1.97;;;1.60;;
34585;SDS011;20816;50.950;11.108;2023-04-15T09:30:36;1.50;;;1.30;;
34585;SDS011;20816;50.950;11.108;2023-04-15T09:33:03;4.03;;;2.20;;
34585;SDS011;20816;50.950;11.108;2023-04-15T09:35:34;3.60;;;1.97;;
34585;SDS011;20816;50.950;11.108;2023-04-15T09:38:04;2.63;;;1.40;;
34585;SDS011;20816;50.950;11.108;2023-04-15T09:40:33;2.67;;;1.73;;
34585;SDS011;20816;50.950;11.108;2023-04-15T09:43:05;2.30;;;1.70;;
34585;SDS011;20816;50.950;11.108;2023-04-15T09:45:33;1.77;;;1.30;;
34585;SDS011;20816;50.950;11.108;2023-04-15T09:51:00;2.17;;;1.40;;
34585;SDS011;20816;50.950;11.108;2023-04-15T09:53:27;1.67;;;1.57;;
34585;SDS011;20816;50.950;11.108;2023-04-15T09:55:57;2.20;;;1.57;;
34585;SDS011;20816;50.950;11.108;2023-04-15T09:58:29;3.10;;;2.10;;
34585;SDS011;20816;50.950;11.108;2023-04-15T10:00:57;3.43;;;2.03;;
34585;SDS011;20816;50.950;11.108;2023-04-15T10:03:27;6.33;;;2.60;;
34585;SDS011;20816;50.950;11.108;2023-04-15T10:05:57;6.13;;;2.23;;
34585;SDS011;20816;50.950;11.108;2023-04-15T10:08:29;3.27;;;1.70;;
34585;SDS011;20816;50.950;11.108;2023-04-15T10:10:59;3.37;;;2.00;;
34585;SDS011;20816;50.950;11.108;2023-04-15T10:13:28;3.10;;;1.93;;
34585;SDS011;20816;50.950;11.108;2023-04-15T10:16:04;3.60;;;1.70;;
34585;SDS011;20816;50.950;11.108;2023-04-15T10:18:37;3.33;;;1.70;;
34585;SDS011;20816;50.950;11.108;2023-04-15T10:21:08;4.23;;;2.40;;
34585;SDS011;20816;50.950;11.108;2023-04-15T10:23:35;2.67;;;2.27;;
34585;SDS011;20816;50.950;11.108;2023-04-15T10:26:04;3.57;;;2.03;;
34585;SDS011;20816;50.950;11.108;2023-04-15T10:28:32;1.83;;;1.50;;
34585;SDS011;20816;50.950;11.108;2023-04-15T10:31:00;4.07;;;1.50;;
34585;SDS011;20816;50.950;11.108;2023-04-15T10:33:27;2.43;;;1.90;;
34585;SDS011;20816;50.950;11.108;2023-04-15T10:35:55;2.23;;;1.50;;
34585;SDS011;20816;50.950;11.108;2023-04-15T10:46:33;3.53;;;2.03;;
34585;SDS011;20816;50.950;11.108;2023-04-15T10:51:37;4.13;;;2.23;;
34585;SDS011;20816;50.950;11.108;2023-04-15T10:56:51;3.37;;;2.10;;
34585;SDS011;20816;50.950;11.108;2023-04-15T10:59:36;2.37;;;1.87;;
34585;SDS011;20816;50.950;11.108;2023-04-15T11:05:14;2.43;;;1.97;;
34585;SDS011;20816;50.950;11.108;2023-04-15T11:12:41;3.63;;;2.60;;
34585;SDS011;20816;50.950;11.108;2023-04-15T11:17:52;4.00;;;1.73;;
34585;SDS011;20816;50.950;11.108;2023-04-15T11:20:19;2.43;;;1.80;;
34585;SDS011;20816;50.950;11.108;2023-04-15T11:22:50;3.67;;;1.90;;
34585;SDS011;20816;50.950;11.108;2023-04-15T11:25:38;2.37;;;1.93;;
34585;SDS011;20816;50.950;11.108;2023-04-15T11:28:08;3.43;;;1.90;;
34585;SDS011;20816;50.950;11.108;2023-04-15T11:30:36;3.30;;;2.17;;
34585;SDS011;20816;50.950;11.108;2023-04-15T11:33:04;2.40;;;1.57;;
34585;SDS011;20816;50.950;11.108;2023-04-15T11:35:34;4.47;;;2.00;;
34585;SDS011;20816;50.950;11.108;2023-04-15T11:38:02;2.80;;;1.93;;
34585;SDS011;20816;50.950;11.108;2023-04-15T11:40:34;2.87;;;1.83;;
34585;SDS011;20816;50.950;11.108;2023-04-15T11:45:31;2.70;;;2.13;;
34585;SDS011;20816;50.950;11.108;2023-04-15T11:48:04;4.20;;;1.70;;
34585;SDS011;20816;50.950;11.108;2023-04-15T11:50:33;2.27;;;1.50;;
34585;SDS011;20816;50.950;11.108;2023-04-15T11:53:04;3.03;;;1.67;;
34585;SDS011;20816;50.950;11.108;2023-04-15T11:55:40;3.57;;;2.20;;
34585;SDS011;20816;50.950;11.108;2023-04-15T12:00:48;2.83;;;1.50;;
34585;SDS011;20816;50.950;11.108;2023-04-15T12:03:19;2.77;;;1.73;;
34585;SDS011;20816;50.950;11.108;2023-04-15T12:06:04;3.73;;;1.47;;
34585;SDS011;20816;50.950;11.108;2023-04-15T12:11:34;2.63;;;1.50;;
34585;SDS011;20816;50.950;11.108;2023-04-15T12:14:30;2.07;;;1.47;;
34585;SDS011;20816;50.950;11.108;2023-04-15T12:16:58;2.13;;;1.27;;
34585;SDS011;20816;50.950;11.108;2023-04-15T12:19:34;2.93;;;1.67;;
34585;SDS011;20816;50.950;11.108;2023-04-15T12:22:03;2.93;;;1.80;;
34585;SDS011;20816;50.950;11.108;2023-04-15T12:24:32;2.53;;;1.50;;
34585;SDS011;20816;50.950;11.108;2023-04-15T12:29:33;3.67;;;1.60;;
34585;SDS011;20816;50.950;11.108;2023-04-15T12:32:06;3.07;;;1.50;;
34585;SDS011;20816;50.950;11.108;2023-04-15T12:34:43;2.20;;;1.27;;
34585;SDS011;20816;50.950;11.108;2023-04-15T12:37:15;1.80;;;1.10;;
34585;SDS011;20816;50.950;11.108;2023-04-15T12:39:43;2.63;;;1.37;;
34585;SDS011;20816;50.950;11.108;2023-04-15T12:42:11;3.40;;;1.17;;
34585;SDS011;20816;50.950;11.108;2023-04-15T12:44:38;1.77;;;1.53;;
34585;SDS011;20816;50.950;11.108;2023-04-15T12:47:05;1.70;;;1.37;;
34585;SDS011;20816;50.950;11.108;2023-04-15T12:49:33;3.80;;;1.40;;
34585;SDS011;20816;50.950;11.108;2023-04-15T12:52:00;1.93;;;1.47;;
34585;SDS011;20816;50.950;11.108;2023-04-15T12:54:29;2.77;;;1.80;;
34585;SDS011;20816;50.950;11.108;2023-04-15T12:56:56;3.17;;;1.77;;
34585;SDS011;20816;50.950;11.108;2023-04-15T12:59:24;2.10;;;1.30;;
34585;SDS011;20816;50.950;11.108;2023-04-15T13:01:51;2.93;;;1.70;;
34585;SDS011;20816;50.950;11.108;2023-04-15T13:04:19;1.87;;;1.53;;
34585;SDS011;20816;50.950;11.108;2023-04-15T13:06:47;2.70;;;1.70;;
34585;SDS011;20816;50.950;11.108;2023-04-15T13:09:14;2.47;;;1.30;;
34585;SDS011;20816;50.950;11.108;2023-04-15T13:11:41;2.83;;;1.50;;
34585;SDS011;20816;50.950;11.108;2023-04-15T13:14:08;2.70;;;1.87;;
34585;SDS011;20816;50.950;11.108;2023-04-15T13:16:37;2.13;;;1.60;;
34585;SDS011;20816;50.950;11.108;2023-04-15T13:19:04;1.60;;;1.37;;
34585;SDS011;20816;50.950;11.108;2023-04-15T13:21:31;1.60;;;1.30;;
34585;SDS011;20816;50.950;11.108;2023-04-15T13:24:01;2.47;;;1.47;;
34585;SDS011;20816;50.950;11.108;2023-04-15T13:26:29;2.47;;;1.43;;
34585;SDS011;20816;50.950;11.108;2023-04-15T13:28:58;2.43;;;1.70;;
34585;SDS011;20816;50.950;11.108;2023-04-15T13:31:25;4.13;;;1.70;;
34585;SDS011;20816;50.950;11.108;2023-04-15T13:33:52;1.63;;;1.53;;
34585;SDS011;20816;50.950;11.108;2023-04-15T13:36:21;4.70;;;1.40;;
34585;SDS011;20816;50.950;11.108;2023-04-15T13:38:48;2.47;;;2.00;;
34585;SDS011;20816;50.950;11.108;2023-04-15T13:41:23;3.50;;;1.90;;
34585;SDS011;20816;50.950;11.108;2023-04-15T13:43:53;1.73;;;1.23;;
34585;SDS011;20816;50.950;11.108;2023-04-15T13:46:33;1.97;;;1.53;;
34585;SDS011;20816;50.950;11.108;2023-04-15T13:49:00;2.83;;;1.87;;
34585;SDS011;20816;50.950;11.108;2023-04-15T13:51:27;3.80;;;2.07;;
34585;SDS011;20816;50.950;11.108;2023-04-15T13:53:54;3.17;;;2.10;;
34585;SDS011;20816;50.950;11.108;2023-04-15T13:56:22;2.50;;;1.63;;
34585;SDS011;20816;50.950;11.108;2023-04-15T13:58:50;3.47;;;2.00;;
34585;SDS011;20816;50.950;11.108;2023-04-15T14:01:18;3.10;;;1.53;;
34585;SDS011;20816;50.950;11.108;2023-04-15T14:03:45;3.93;;;2.23;;
34585;SDS011;20816;50.950;11.108;2023-04-15T14:06:11;2.90;;;2.43;;
34585;SDS011;20816;50.950;11.108;2023-04-15T14:08:38;2.47;;;2.03;;
34585;SDS011;20816;50.950;11.108;2023-04-15T14:11:05;2.50;;;2.00;;
34585;SDS011;20816;50.950;11.108;2023-04-15T14:13:32;3.03;;;1.97;;
34585;SDS011;20816;50.950;11.108;2023-04-15T14:15:59;3.77;;;2.13;;
34585;SDS011;20816;50.950;11.108;2023-04-15T14:18:26;3.13;;;1.60;;
34585;SDS011;20816;50.950;11.108;2023-04-15T14:20:53;3.93;;;2.07;;
34585;SDS011;20816;50.950;11.108;2023-04-15T14:23:20;3.60;;;2.27;;
34585;SDS011;20816;50.950;11.108;2023-04-15T14:25:47;2.37;;;1.90;;
34585;SDS011;20816;50.950;11.108;2023-04-15T14:28:14;3.23;;;2.03;;
34585;SDS011;20816;50.950;11.108;2023-04-15T14:30:41;3.43;;;2.20;;
34585;SDS011;20816;50.950;11.108;2023-04-15T14:33:08;2.90;;;2.13;;
34585;SDS011;20816;50.950;11.108;2023-04-15T14:35:35;3.57;;;1.70;;
34585;SDS011;20816;50.950;11.108;2023-04-15T14:38:01;3.47;;;2.03;;
34585;SDS011;20816;50.950;11.108;2023-04-15T14:40:28;3.50;;;2.27;;
34585;SDS011;20816;50.950;11.108;2023-04-15T14:42:55;3.70;;;2.43;;
34585;SDS011;20816;50.950;11.108;2023-04-15T14:45:22;5.43;;;2.50;;
34585;SDS011;20816;50.950;11.108;2023-04-15T14:47:49;4.03;;;2.07;;
34585;SDS011;20816;50.950;11.108;2023-04-15T14:50:16;4.27;;;1.90;;
34585;SDS011;20816;50.950;11.108;2023-04-15T14:52:43;5.70;;;2.83;;
34585;SDS011;20816;50.950;11.108;2023-04-15T14:55:10;4.53;;;2.80;;
34585;SDS011;20816;50.950;11.108;2023-04-15T14:57:38;4.57;;;3.23;;
34585;SDS011;20816;50.950;11.108;2023-04-15T15:00:06;4.37;;;2.50;;
34585;SDS011;20816;50.950;11.108;2023-04-15T15:02:35;3.10;;;2.30;;
34585;SDS011;20816;50.950;11.108;2023-04-15T15:05:05;3.10;;;2.57;;
34585;SDS011;20816;50.950;11.108;2023-04-15T15:07:34;5.53;;;3.03;;
34585;SDS011;20816;50.950;11.108;2023-04-15T15:10:02;5.83;;;3.43;;
34585;SDS011;20816;50.950;11.108;2023-04-15T15:12:29;5.40;;;3.20;;
34585;SDS011;20816;50.950;11.108;2023-04-15T15:14:56;4.93;;;3.17;;